KDHT/DHT METAR and TAF weather

Enter ICAO airport designator
Station Type Date Time Source
KDHT METAR 2019/08/22 03:46 UTC NOAA

KDHT 220346Z AUTO 08008KT 10SM -RA BKN100 OVC120 20/15 A3019 RMK AO2 LTG DSNT NE AND NW RAE01B19 P0000 T02000150


Station Type Date Time Source
KDHT Decoded METAR 2019/08/22 03:46 UTC NOAA

Station name not available
Aug 21, 2019 - 11:46 PM EDT / 2019.08.22 0346 UTC
Wind: from the E (080 degrees) at 9 MPH (8 KT):0
Visibility: 10 mile(s):0
Sky conditions: overcast
Weather: light rain; Lightning observed
Precipitation last hour: A trace
Temperature: 68.0 F (20.0 C)
Dew Point: 59.0 F (15.0 C)
Relative Humidity: 72%
Pressure (altimeter): 30.19 in. Hg (1022 hPa)
ob: KDHT 220346Z AUTO 08008KT 10SM -RA BKN100 OVC120 20/15 A3019 RMK AO2 LTG DSNT NE AND NW RAE01B19 P0000 T02000150
cycle: 4

Station Type Date Time Source
KDHT TAF 2019/08/21 20:30 UTC NOAA

TAF
AMD KDHT 212027Z 2120/2218 21015KT P6SM FEW250
TEMPO 2121/2201 VRB30G40KT 5SM TSRA BKN050CB
FM220100 30010KT P6SM SHRA OVC150
FM220600 35008KT P6SM BKN130 PROB30 2206/2209 4SM TSRA OVC025CB

Example: see airport list